createdAt,value
2022-09-28T00:06:13.423Z,22.40
2022-09-28T00:16:18.022Z,18.57
2022-09-28T00:26:20.144Z,19.13
2022-09-28T00:36:27.217Z,12.27
2022-09-28T00:46:33.961Z,8.03
2022-09-28T00:56:41.729Z,4.57
2022-09-28T01:06:53.598Z,4.43
2022-09-28T01:17:13.787Z,4.23
2022-09-28T01:27:34.410Z,4.70
2022-09-28T01:37:57.452Z,4.27
2022-09-28T01:48:05.492Z,3.83
2022-09-28T01:58:19.453Z,3.20
2022-09-28T02:08:28.642Z,2.63
2022-09-28T02:18:33.547Z,2.80
2022-09-28T02:28:41.144Z,2.40
2022-09-28T02:38:43.330Z,2.40
2022-09-28T02:49:20.880Z,2.70
2022-09-28T02:59:36.089Z,2.90
2022-09-28T03:09:50.424Z,4.43
2022-09-28T03:19:54.476Z,6.53
2022-09-28T03:30:01.352Z,7.90
2022-09-28T03:40:05.666Z,9.27
2022-09-28T03:50:13.945Z,9.33
2022-09-28T04:00:21.793Z,10.90
2022-09-28T04:10:29.621Z,11.97
2022-09-28T04:20:39.334Z,15.30
2022-09-28T04:30:48.762Z,15.17
2022-09-28T04:40:52.171Z,16.27
2022-09-28T04:50:56.155Z,16.00
2022-09-28T05:01:02.435Z,14.37
2022-09-28T05:11:49.929Z,16.70
2022-09-28T05:21:56.158Z,16.13
2022-09-28T05:31:58.485Z,15.73
2022-09-28T05:42:14.271Z,15.77
2022-09-28T05:52:20.646Z,15.67
2022-09-28T06:02:25.438Z,18.90
2022-09-28T06:12:30.938Z,15.93
2022-09-28T06:22:40.325Z,14.47
2022-09-28T06:32:43.890Z,14.73
2022-09-28T06:42:55.496Z,15.17
2022-09-28T06:53:18.845Z,16.00
2022-09-28T07:03:27.298Z,14.37
2022-09-28T07:13:50.875Z,14.30
2022-09-28T07:23:55.959Z,13.67
2022-09-28T07:33:58.855Z,14.00
2022-09-28T07:44:09.227Z,13.87
2022-09-28T07:54:18.092Z,14.60
2022-09-28T08:04:30.338Z,9.40
2022-09-28T08:14:37.827Z,9.50
2022-09-28T08:24:59.456Z,9.85
2022-09-28T08:35:03.819Z,9.00
2022-09-28T08:45:27.485Z,8.75
2022-09-28T08:55:49.995Z,7.97
2022-09-28T09:06:27.086Z,7.43
2022-09-28T09:17:00.652Z,7.80
2022-09-28T09:27:18.255Z,6.70
2022-09-28T09:37:55.197Z,5.35
2022-09-28T09:48:19.107Z,4.55
2022-09-28T09:58:31.858Z,4.57
2022-09-28T10:09:20.490Z,3.92
2022-09-28T10:19:33.303Z,4.20
2022-09-28T10:30:01.310Z,3.90
2022-09-28T10:40:48.360Z,3.65
2022-09-28T10:51:08.369Z,3.70
2022-09-28T11:01:13.748Z,3.10
2022-09-28T11:11:21.972Z,4.57
2022-09-28T11:21:42.490Z,3.38
2022-09-28T11:31:46.795Z,3.10
2022-09-28T11:41:56.537Z,2.80
2022-09-28T11:52:04.283Z,2.55
2022-09-28T12:02:28.379Z,3.15
2022-09-28T12:12:43.198Z,1.90
2022-09-28T12:22:56.209Z,1.95
2022-09-28T12:33:04.376Z,1.92
2022-09-28T12:43:33.640Z,1.83
2022-09-28T12:54:09.724Z,1.75
2022-09-28T13:04:30.416Z,2.38
2022-09-28T13:15:04.127Z,2.95
2022-09-28T13:25:14.549Z,3.53
2022-09-28T13:35:20.213Z,3.28
2022-09-28T13:45:22.732Z,2.92
2022-09-28T13:55:33.146Z,2.60
2022-09-28T14:05:41.872Z,2.70
2022-09-28T14:15:47.148Z,1.65
2022-09-28T14:26:26.990Z,1.40
2022-09-28T14:37:00.883Z,2.05
2022-09-28T14:47:26.127Z,2.15
2022-09-28T14:57:34.250Z,1.70
2022-09-28T15:18:19.385Z,1.90
2022-09-28T15:28:26.148Z,2.50
2022-09-28T15:38:28.642Z,2.40
2022-09-28T15:48:37.014Z,2.38
2022-09-28T15:58:39.755Z,2.60
2022-09-28T16:08:46.294Z,2.72
2022-09-28T16:18:55.482Z,2.63
2022-09-28T16:28:59.201Z,2.58
2022-09-28T16:39:12.719Z,3.40
2022-09-28T16:49:21.276Z,3.20
2022-09-28T16:59:25.661Z,3.63
2022-09-28T17:09:35.762Z,3.80
2022-09-28T17:19:41.169Z,3.50
2022-09-28T17:29:49.051Z,4.60
2022-09-28T17:39:51.030Z,4.50
2022-09-28T17:49:58.683Z,4.27
2022-09-28T18:00:02.395Z,3.80
2022-09-28T18:10:18.299Z,7.30
2022-09-28T18:20:22.738Z,5.10
2022-09-28T18:30:28.320Z,5.40
2022-09-28T18:40:36.262Z,4.20
2022-09-28T18:50:38.749Z,5.97
2022-09-28T19:00:42.239Z,5.93
2022-09-28T19:10:44.781Z,4.27
2022-09-28T19:20:46.792Z,2.87
2022-09-28T19:30:59.454Z,2.03
2022-09-28T19:41:04.222Z,1.30
2022-09-28T19:51:12.046Z,1.23
2022-09-28T20:01:16.524Z,1.80
2022-09-28T20:11:21.442Z,33.17
2022-09-28T20:21:29.416Z,3.17
2022-09-28T20:31:31.454Z,3.90
2022-09-28T20:41:40.013Z,4.30
2022-09-28T20:51:45.312Z,4.17
2022-09-28T21:01:56.123Z,4.23
2022-09-28T21:12:00.136Z,4.10
2022-09-28T21:22:07.048Z,6.07
2022-09-28T21:32:11.563Z,20.90
2022-09-28T21:42:15.798Z,6.50
2022-09-28T21:52:21.545Z,8.60
2022-09-28T22:02:23.612Z,9.40
2022-09-28T22:12:30.232Z,11.77
2022-09-28T22:22:39.710Z,13.03
2022-09-28T22:32:45.333Z,15.67
2022-09-28T22:42:49.780Z,17.73
2022-09-28T22:52:56.414Z,20.97
2022-09-28T23:03:02.999Z,21.50
2022-09-28T23:13:09.560Z,15.60
2022-09-28T23:23:11.578Z,16.07
2022-09-28T23:33:14.903Z,17.97
2022-09-28T23:43:21.589Z,16.93
2022-09-28T23:53:32.365Z,15.90
